createdAt,value
2018-02-08T00:01:14.394Z,0.98
2018-02-08T00:03:41.946Z,0.93
2018-02-08T00:06:09.545Z,0.92
2018-02-08T00:08:37.091Z,0.89
2018-02-08T00:11:04.620Z,0.95
2018-02-08T00:13:32.141Z,0.91
2018-02-08T00:15:59.698Z,0.85
2018-02-08T00:18:27.494Z,0.84
2018-02-08T00:20:55.204Z,0.69
2018-02-08T00:23:22.734Z,0.77
2018-02-08T00:25:50.267Z,0.77
2018-02-08T00:28:18.891Z,0.73
2018-02-08T00:30:46.542Z,0.68
2018-02-08T00:33:14.064Z,0.71
2018-02-08T00:35:41.743Z,0.61
2018-02-08T00:38:09.334Z,0.37
2018-02-08T00:40:36.954Z,0.66
2018-02-08T00:43:04.538Z,0.48
2018-02-08T00:45:32.077Z,0.39
2018-02-08T00:47:59.619Z,0.32
2018-02-08T00:50:27.150Z,0.30
2018-02-08T00:52:54.660Z,0.17
2018-02-08T00:55:22.175Z,0.01
2018-02-08T00:57:49.737Z,0.15
2018-02-08T01:00:17.321Z,0.15
2018-02-08T01:02:44.931Z,0.23
2018-02-08T01:05:12.508Z,0.21
2018-02-08T01:07:40.026Z,0.21
2018-02-08T01:10:07.549Z,0.21
2018-02-08T01:12:35.076Z,0.24
2018-02-08T01:15:02.591Z,0.07
2018-02-08T01:17:30.119Z,0.12
2018-02-08T01:19:57.656Z,0.05
2018-02-08T01:22:25.164Z,0.07
2018-02-08T01:24:52.683Z,0.02
2018-02-08T01:27:20.301Z,-0.13
2018-02-08T01:29:47.891Z,-0.25
2018-02-08T01:32:15.493Z,-0.22
2018-02-08T01:34:43.009Z,-0.28
2018-02-08T01:37:10.634Z,-0.22
2018-02-08T01:39:39.088Z,-0.40
2018-02-08T01:42:06.645Z,-0.44
2018-02-08T01:44:34.250Z,-0.40
2018-02-08T01:47:01.839Z,-0.39
2018-02-08T01:49:41.275Z,-0.42
2018-02-08T01:52:08.804Z,-0.39
2018-02-08T01:54:36.387Z,-0.42
2018-02-08T01:57:03.959Z,-0.43
2018-02-08T01:59:31.484Z,-0.32
2018-02-08T02:01:59.008Z,-0.34
2018-02-08T02:04:26.544Z,-0.34
2018-02-08T02:06:54.094Z,-0.35
2018-02-08T02:09:21.684Z,-0.29
2018-02-08T02:11:49.214Z,-0.29
2018-02-08T02:14:16.760Z,-0.29
2018-02-08T02:16:44.284Z,-0.43
2018-02-08T02:19:11.798Z,-0.40
2018-02-08T02:21:39.395Z,-0.37
2018-02-08T02:24:06.962Z,-0.32
2018-02-08T02:26:34.556Z,-0.23
2018-02-08T02:29:02.134Z,-0.31
2018-02-08T02:31:29.718Z,-0.38
2018-02-08T02:33:57.301Z,-0.37
2018-02-08T02:36:24.836Z,-0.38
2018-02-08T02:38:52.369Z,-0.43
2018-02-08T02:41:19.960Z,-0.38
2018-02-08T02:43:47.615Z,-0.49
2018-02-08T02:46:15.181Z,-0.64
2018-02-08T02:48:42.760Z,-0.61
2018-02-08T02:51:10.308Z,-0.51
2018-02-08T02:53:37.949Z,-0.47
2018-02-08T02:56:05.485Z,-0.47
2018-02-08T02:58:34.049Z,-0.39
2018-02-08T03:01:01.596Z,-0.40
2018-02-08T03:03:29.214Z,-0.22
2018-02-08T03:05:57.573Z,-0.30
2018-02-08T03:08:25.094Z,-0.33
2018-02-08T03:10:52.636Z,-0.27
2018-02-08T03:13:20.151Z,-0.24
2018-02-08T03:15:48.086Z,-0.19
2018-02-08T03:18:15.618Z,-0.19
2018-02-08T03:20:43.148Z,-0.05
2018-02-08T03:23:10.759Z,-0.19
2018-02-08T03:25:38.695Z,-0.29
2018-02-08T03:28:06.235Z,-0.24
2018-02-08T03:30:33.775Z,-0.15
2018-02-08T03:33:01.294Z,-0.35
2018-02-08T03:35:29.005Z,-0.46
2018-02-08T03:37:56.565Z,-0.42
2018-02-08T03:40:24.118Z,-0.34
2018-02-08T03:42:51.666Z,-0.30
2018-02-08T03:45:19.284Z,-0.23
2018-02-08T03:47:46.800Z,-0.08
2018-02-08T03:50:14.320Z,0.03
2018-02-08T03:52:41.953Z,0.02
2018-02-08T03:55:09.474Z,-0.09
2018-02-08T03:57:37.025Z,-0.15
2018-02-08T04:00:04.549Z,-0.10
2018-02-08T04:02:32.134Z,-0.08
2018-02-08T04:04:59.685Z,-0.14
2018-02-08T04:07:27.241Z,-0.23
2018-02-08T04:09:54.815Z,-0.39
2018-02-08T04:12:22.574Z,-0.48
2018-02-08T04:14:50.126Z,-0.39
2018-02-08T04:17:17.738Z,-0.32
2018-02-08T04:19:45.336Z,-0.22
2018-02-08T04:22:12.859Z,-0.27
2018-02-08T04:24:40.420Z,-0.23
2018-02-08T04:27:07.939Z,-0.21
2018-02-08T04:29:35.526Z,-0.19
2018-02-08T04:32:03.050Z,-0.15
2018-02-08T04:34:30.650Z,-0.21
2018-02-08T04:36:58.198Z,-0.28
2018-02-08T04:39:37.632Z,-0.39
2018-02-08T04:42:17.010Z,-0.40
2018-02-08T04:44:56.411Z,-0.49
2018-02-08T04:47:27.918Z,-0.65
2018-02-08T04:49:55.499Z,-0.65
2018-02-08T04:52:23.081Z,-0.71
2018-02-08T04:54:50.689Z,-0.72
2018-02-08T04:57:18.212Z,-0.64
2018-02-08T04:59:45.844Z,-0.40
2018-02-08T05:02:14.216Z,-0.39
2018-02-08T05:04:41.850Z,-0.25
2018-02-08T05:07:09.454Z,-0.21
2018-02-08T05:09:37.039Z,-0.21
2018-02-08T05:12:04.577Z,-0.21
2018-02-08T05:14:32.124Z,-0.20
2018-02-08T05:16:59.637Z,-0.38
2018-02-08T05:19:27.161Z,-0.29
2018-02-08T05:21:54.800Z,-0.14
2018-02-08T05:24:22.351Z,0.06
2018-02-08T05:26:49.900Z,0.18
2018-02-08T05:29:17.449Z,0.12
2018-02-08T05:31:44.965Z,0.09
2018-02-08T05:34:12.536Z,0.15
2018-02-08T05:36:40.085Z,0.25
2018-02-08T05:39:07.656Z,0.20
2018-02-08T05:41:35.170Z,0.22
2018-02-08T05:44:02.720Z,0.09
2018-02-08T05:46:30.255Z,0.10
2018-02-08T05:48:57.855Z,0.07
2018-02-08T05:51:31.671Z,-0.08
2018-02-08T05:53:59.236Z,-0.15
2018-02-08T05:56:26.885Z,-0.15
2018-02-08T05:58:54.422Z,-0.14
2018-02-08T06:01:21.945Z,-0.19
2018-02-08T06:03:49.509Z,-0.26
2018-02-08T06:06:17.191Z,-0.24
2018-02-08T06:08:44.765Z,-0.10
2018-02-08T06:11:15.781Z,-0.14
2018-02-08T06:13:43.408Z,-0.33
2018-02-08T06:16:11.001Z,-0.25
2018-02-08T06:18:38.526Z,-0.16
2018-02-08T06:21:06.099Z,0.03
2018-02-08T06:23:33.639Z,-0.02
2018-02-08T06:26:01.240Z,-0.09
2018-02-08T06:28:28.767Z,-0.02
2018-02-08T06:30:56.541Z,-0.16
2018-02-08T06:33:24.056Z,-0.10
2018-02-08T06:35:56.401Z,0.07
2018-02-08T06:38:23.961Z,0.12
2018-02-08T06:40:51.489Z,-0.09
2018-02-08T06:43:19.045Z,0.03
2018-02-08T06:45:47.746Z,0.18
2018-02-08T06:48:15.364Z,0.14
2018-02-08T06:50:42.910Z,0.13
2018-02-08T06:53:10.469Z,0.30
2018-02-08T06:55:37.993Z,0.35
2018-02-08T06:58:05.761Z,0.39
2018-02-08T07:00:33.269Z,0.33
2018-02-08T07:03:00.825Z,0.41
2018-02-08T07:05:28.438Z,0.37
2018-02-08T07:07:56.164Z,0.34
2018-02-08T07:10:23.704Z,0.35
2018-02-08T07:12:51.237Z,0.37
2018-02-08T07:15:19.305Z,0.22
2018-02-08T07:17:47.006Z,0.20
2018-02-08T07:20:14.536Z,0.11
2018-02-08T07:22:42.114Z,0.09
2018-02-08T07:25:09.665Z,0.10
2018-02-08T07:27:37.401Z,-0.08
2018-02-08T07:30:05.066Z,0.20
2018-02-08T07:32:32.671Z,0.48
2018-02-08T07:35:00.196Z,0.35
2018-02-08T07:37:27.730Z,0.26
2018-02-08T07:39:55.261Z,0.29
2018-02-08T07:42:22.815Z,0.35
2018-02-08T07:44:50.345Z,0.46
2018-02-08T07:47:17.924Z,0.52
2018-02-08T07:49:45.521Z,0.73
2018-02-08T07:52:13.125Z,0.64
2018-02-08T07:54:40.678Z,0.71
2018-02-08T07:57:08.192Z,0.67
2018-02-08T07:59:35.735Z,0.84
2018-02-08T08:02:03.254Z,0.94
2018-02-08T08:04:30.809Z,1.04
2018-02-08T08:06:58.356Z,0.96
2018-02-08T08:09:25.995Z,0.88
2018-02-08T08:11:53.730Z,0.86
2018-02-08T08:14:21.259Z,0.65
2018-02-08T08:16:48.914Z,0.96
2018-02-08T08:19:16.424Z,1.20
2018-02-08T08:21:43.961Z,1.27
2018-02-08T08:24:11.706Z,1.48
2018-02-08T08:26:39.449Z,1.63
2018-02-08T08:29:07.164Z,1.70
2018-02-08T08:31:34.787Z,1.68
2018-02-08T08:34:02.501Z,1.72
2018-02-08T08:36:30.064Z,1.49
2018-02-08T08:38:58.057Z,1.68
2018-02-08T08:41:25.600Z,1.41
2018-02-08T08:43:53.139Z,1.66
2018-02-08T08:46:20.717Z,1.56
2018-02-08T08:48:48.250Z,1.66
2018-02-08T08:51:15.856Z,1.92
2018-02-08T08:53:43.361Z,1.90
2018-02-08T08:56:10.900Z,1.90
2018-02-08T08:58:38.520Z,2.16
2018-02-08T09:01:06.031Z,2.18
2018-02-08T09:03:33.689Z,1.92
2018-02-08T09:06:01.222Z,2.13
2018-02-08T09:08:28.992Z,2.10
2018-02-08T09:10:56.519Z,2.36
2018-02-08T09:13:24.066Z,2.40
2018-02-08T09:15:51.576Z,1.98
2018-02-08T09:18:19.100Z,2.56
2018-02-08T09:20:46.691Z,2.46
2018-02-08T09:23:14.216Z,2.68
2018-02-08T09:25:41.799Z,2.04
2018-02-08T09:28:09.311Z,2.27
2018-02-08T09:30:36.896Z,2.30
2018-02-08T09:33:04.420Z,2.29
2018-02-08T09:35:31.990Z,2.35
2018-02-08T09:37:59.670Z,2.82
2018-02-08T09:40:27.186Z,2.50
2018-02-08T09:42:54.794Z,2.47
2018-02-08T09:45:22.341Z,2.32
2018-02-08T09:47:50.435Z,2.34
2018-02-08T09:50:17.966Z,2.73
2018-02-08T09:52:45.713Z,2.84
2018-02-08T09:55:13.239Z,2.42
2018-02-08T09:57:40.756Z,2.92
2018-02-08T10:00:08.306Z,3.21
2018-02-08T10:02:35.880Z,2.81
2018-02-08T10:05:03.425Z,2.69
2018-02-08T10:07:31.179Z,1.85
2018-02-08T10:09:58.862Z,2.55
2018-02-08T10:12:26.461Z,3.12
2018-02-08T10:14:54.001Z,3.24
2018-02-08T10:17:21.514Z,3.34
2018-02-08T10:19:49.105Z,3.60
2018-02-08T10:22:16.646Z,3.88
2018-02-08T10:24:44.351Z,2.93
2018-02-08T10:27:11.870Z,3.01
2018-02-08T10:29:39.582Z,3.28
2018-02-08T10:32:07.181Z,3.53
2018-02-08T10:34:34.691Z,3.37
2018-02-08T10:37:02.261Z,3.08
2018-02-08T10:39:29.783Z,3.13
2018-02-08T10:41:57.325Z,3.32
2018-02-08T10:44:24.925Z,3.30
2018-02-08T10:46:52.466Z,3.26
2018-02-08T10:49:20.009Z,2.22
2018-02-08T10:51:47.604Z,2.78
2018-02-08T10:54:15.136Z,3.34
2018-02-08T10:56:42.670Z,3.13
2018-02-08T10:59:10.430Z,2.98
2018-02-08T11:01:37.989Z,2.60
2018-02-08T11:04:05.653Z,2.80
2018-02-08T11:06:33.190Z,3.07
2018-02-08T11:09:00.740Z,3.77
2018-02-08T11:11:28.263Z,3.20
2018-02-08T11:13:55.799Z,2.39
2018-02-08T11:16:23.325Z,2.67
2018-02-08T11:18:50.866Z,2.42
2018-02-08T11:21:18.601Z,2.47
2018-02-08T11:23:46.370Z,2.95
2018-02-08T11:26:13.889Z,3.37
2018-02-08T11:28:41.434Z,3.35
2018-02-08T11:31:09.059Z,3.26
2018-02-08T11:33:36.655Z,3.19
2018-02-08T11:36:04.345Z,3.02
2018-02-08T11:38:31.876Z,2.64
2018-02-08T11:41:07.651Z,2.64
2018-02-08T11:43:35.416Z,3.46
2018-02-08T11:46:03.081Z,2.57
2018-02-08T11:48:30.626Z,2.32
2018-02-08T11:50:58.229Z,3.51
2018-02-08T11:53:25.808Z,3.41
2018-02-08T11:55:53.451Z,4.04
2018-02-08T11:58:21.046Z,3.98
2018-02-08T12:00:49.429Z,4.08
2018-02-08T12:03:16.981Z,4.33
2018-02-08T12:05:44.630Z,4.66
2018-02-08T12:08:12.204Z,3.67
2018-02-08T12:10:39.714Z,3.87
2018-02-08T12:13:07.239Z,3.86
2018-02-08T12:15:34.816Z,4.78
2018-02-08T12:18:02.350Z,4.02
2018-02-08T12:20:29.971Z,3.68
2018-02-08T12:22:57.617Z,3.19
2018-02-08T12:25:25.177Z,3.71
2018-02-08T12:27:52.714Z,3.94
2018-02-08T12:30:20.324Z,3.72
2018-02-08T12:32:47.860Z,4.38
2018-02-08T12:35:15.550Z,3.92
2018-02-08T12:37:43.190Z,3.92
2018-02-08T12:40:10.713Z,3.62
2018-02-08T12:42:38.320Z,4.53
2018-02-08T12:45:06.045Z,4.18
2018-02-08T12:47:33.565Z,4.15
2018-02-08T12:50:01.125Z,4.18
2018-02-08T12:52:28.790Z,5.15
2018-02-08T12:54:56.338Z,5.62
2018-02-08T12:57:23.874Z,5.21
2018-02-08T12:59:51.433Z,5.84
2018-02-08T13:02:19.054Z,5.04
2018-02-08T13:04:46.821Z,4.99
2018-02-08T13:07:14.521Z,5.67
2018-02-08T13:09:42.929Z,4.74
2018-02-08T13:12:10.504Z,4.60
2018-02-08T13:14:38.046Z,4.63
2018-02-08T13:17:05.565Z,4.96
2018-02-08T13:19:33.090Z,6.73
2018-02-08T13:22:00.705Z,7.10
2018-02-08T13:24:28.301Z,7.61
2018-02-08T13:26:55.850Z,7.52
2018-02-08T13:29:23.476Z,7.43
2018-02-08T13:31:55.768Z,7.16
2018-02-08T13:34:23.291Z,6.63
2018-02-08T13:36:50.901Z,7.37
2018-02-08T13:39:29.290Z,7.27
2018-02-08T13:41:57.195Z,7.34
2018-02-08T13:44:24.795Z,7.44
2018-02-08T13:46:52.360Z,6.58
2018-02-08T13:49:24.854Z,5.24
2018-02-08T13:54:59.224Z,6.14
2018-02-08T13:57:32.342Z,6.33
2018-02-08T14:00:03.303Z,5.20
2018-02-08T14:02:30.839Z,5.54
2018-02-08T14:04:58.454Z,4.85
2018-02-08T14:07:26.026Z,5.21
2018-02-08T14:09:53.550Z,6.92
2018-02-08T14:12:21.096Z,8.92
2018-02-08T14:14:48.774Z,10.00
2018-02-08T14:17:16.329Z,10.68
2018-02-08T14:19:43.919Z,10.70
2018-02-08T14:22:11.512Z,7.91
2018-02-08T14:24:39.219Z,5.87
2018-02-08T14:27:06.841Z,6.24
2018-02-08T14:29:34.396Z,5.52
2018-02-08T14:32:02.013Z,4.11
2018-02-08T14:34:30.389Z,4.08
2018-02-08T14:36:57.936Z,4.06
2018-02-08T14:39:25.476Z,4.10
2018-02-08T14:41:53.044Z,4.18
2018-02-08T14:44:20.590Z,4.34
2018-02-08T14:46:48.137Z,4.45
2018-02-08T14:49:15.697Z,4.56
2018-02-08T14:51:43.230Z,4.42
2018-02-08T14:54:10.816Z,4.44
2018-02-08T14:56:38.437Z,4.36
2018-02-08T14:59:06.009Z,4.28
2018-02-08T15:01:33.715Z,3.97
2018-02-08T15:04:01.260Z,4.15
2018-02-08T15:06:28.966Z,4.19
2018-02-08T15:08:56.635Z,3.74
2018-02-08T15:11:24.576Z,3.59
2018-02-08T15:13:52.302Z,3.75
2018-02-08T15:16:20.009Z,3.03
2018-02-08T15:18:47.622Z,3.06
2018-02-08T15:21:15.192Z,3.21
2018-02-08T15:23:42.802Z,3.29
2018-02-08T15:26:10.459Z,3.20
2018-02-08T15:28:37.985Z,3.22
2018-02-08T15:31:05.631Z,3.41
2018-02-08T15:33:33.225Z,3.43
2018-02-08T15:36:00.751Z,3.43
2018-02-08T15:38:28.270Z,3.06
2018-02-08T15:40:55.821Z,3.28
2018-02-08T15:43:23.350Z,3.10
2018-02-08T15:45:50.880Z,2.80
2018-02-08T15:48:18.496Z,2.63
2018-02-08T15:50:46.112Z,2.63
2018-02-08T15:53:13.705Z,2.81
2018-02-08T15:55:41.252Z,2.73
2018-02-08T15:58:08.922Z,2.95
2018-02-08T16:00:36.556Z,2.71
2018-02-08T16:03:04.211Z,2.70
2018-02-08T16:05:31.811Z,2.49
2018-02-08T16:07:59.401Z,2.74
2018-02-08T16:10:26.930Z,2.43
2018-02-08T16:12:54.461Z,2.26
2018-02-08T16:15:22.035Z,2.09
2018-02-08T16:17:49.596Z,2.02
2018-02-08T16:20:17.151Z,2.19
2018-02-08T16:22:44.766Z,1.90
2018-02-08T16:25:12.335Z,1.74
2018-02-08T16:27:39.957Z,1.66
2018-02-08T16:30:07.515Z,1.50
2018-02-08T16:32:35.120Z,1.47
2018-02-08T16:38:56.829Z,1.23
2018-02-08T16:41:24.407Z,1.07
2018-02-08T16:43:52.027Z,0.98
2018-02-08T16:46:19.605Z,0.90
2018-02-08T16:48:47.125Z,0.79
2018-02-08T16:51:14.651Z,0.73
2018-02-08T16:53:42.241Z,0.56
2018-02-08T16:56:09.945Z,0.62
2018-02-08T16:58:37.477Z,0.59
2018-02-08T17:01:05.167Z,0.59
2018-02-08T17:03:32.870Z,0.54
2018-02-08T17:06:00.426Z,0.45
2018-02-08T17:08:28.078Z,0.41
2018-02-08T17:10:55.661Z,0.27
2018-02-08T17:13:23.590Z,0.25
2018-02-08T17:15:51.169Z,0.36
2018-02-08T17:18:18.680Z,0.15
2018-02-08T17:20:46.316Z,0.00
2018-02-08T17:23:13.854Z,0.08
2018-02-08T17:25:41.460Z,0.29
2018-02-08T17:28:08.991Z,0.19
2018-02-08T17:30:36.542Z,0.22
2018-02-08T17:33:04.180Z,0.21
2018-02-08T17:35:31.822Z,0.10
2018-02-08T17:37:59.353Z,0.18
2018-02-08T17:40:26.895Z,0.21
2018-02-08T17:42:54.530Z,0.25
2018-02-08T17:45:22.141Z,0.10
2018-02-08T17:47:49.670Z,-0.09
2018-02-08T17:50:17.219Z,-0.33
2018-02-08T17:52:44.764Z,-0.43
2018-02-08T17:55:12.289Z,-0.42
2018-02-08T17:57:39.968Z,-0.43
2018-02-08T18:00:07.682Z,-0.41
2018-02-08T18:02:35.314Z,-0.51
2018-02-08T18:05:03.197Z,-0.45
2018-02-08T18:07:30.786Z,-0.29
2018-02-08T18:09:58.356Z,-0.27
2018-02-08T18:12:26.021Z,-0.24
2018-02-08T18:14:53.653Z,-0.40
2018-02-08T18:17:21.220Z,-0.32
2018-02-08T18:19:48.856Z,-0.26
2018-02-08T18:22:16.626Z,-0.41
2018-02-08T18:24:44.295Z,-0.43
2018-02-08T18:27:11.927Z,-0.54
2018-02-08T18:29:39.546Z,-0.44
2018-02-08T18:32:07.270Z,-0.42
2018-02-08T18:34:34.908Z,-0.45
2018-02-08T18:37:02.539Z,-0.74
2018-02-08T18:39:30.107Z,-0.86
2018-02-08T18:41:57.777Z,-0.80
2018-02-08T18:44:25.377Z,-0.78
2018-02-08T18:46:52.978Z,-0.94
2018-02-08T18:49:20.839Z,-0.93
2018-02-08T18:51:48.487Z,-1.07
2018-02-08T18:54:16.176Z,-0.96
2018-02-08T18:56:43.831Z,-1.10
2018-02-08T18:59:11.377Z,-1.15
2018-02-08T19:01:38.959Z,-1.21
2018-02-08T19:04:06.518Z,-1.26
2018-02-08T19:06:34.373Z,-1.24
2018-02-08T19:09:01.911Z,-1.25
2018-02-08T19:11:29.460Z,-1.35
2018-02-08T19:13:57.130Z,-1.59
2018-02-08T19:16:25.514Z,-1.64
2018-02-08T19:18:53.045Z,-1.58
2018-02-08T19:21:20.635Z,-1.27
2018-02-08T19:23:48.306Z,-1.02
2018-02-08T19:26:15.846Z,-0.85
2018-02-08T19:28:43.512Z,-0.89
2018-02-08T19:31:11.107Z,-0.87
2018-02-08T19:33:38.665Z,-0.82
2018-02-08T19:36:06.210Z,-1.00
2018-02-08T19:38:33.992Z,-1.06
2018-02-08T19:41:02.166Z,-0.96
2018-02-08T19:43:30.639Z,-0.74
2018-02-08T19:45:58.379Z,-0.71
2018-02-08T19:48:25.996Z,-1.00
2018-02-08T19:50:53.686Z,-1.01
2018-02-08T19:53:21.400Z,-0.99
2018-02-08T19:55:50.051Z,-1.03
2018-02-08T19:58:17.700Z,-1.14
2018-02-08T20:00:45.440Z,-1.18
2018-02-08T20:03:13.104Z,-1.28
2018-02-08T20:05:40.760Z,-1.33
2018-02-08T20:08:08.394Z,-1.40
2018-02-08T20:10:35.958Z,-1.44
2018-02-08T20:13:03.615Z,-1.51
2018-02-08T20:15:40.680Z,-1.41
2018-02-08T20:18:08.251Z,-1.33
2018-02-08T20:20:35.821Z,-1.50
2018-02-08T20:23:03.487Z,-1.58
2018-02-08T20:25:36.554Z,-1.76
2018-02-08T20:28:04.134Z,-1.70
2018-02-08T20:30:31.768Z,-1.80
2018-02-08T20:32:59.440Z,-1.94
2018-02-08T20:35:27.010Z,-2.06
2018-02-08T20:37:54.725Z,-2.04
2018-02-08T20:40:22.300Z,-1.90
2018-02-08T20:42:55.649Z,-1.77
2018-02-08T20:45:23.182Z,-1.82
2018-02-08T20:47:50.756Z,-2.10
2018-02-08T20:50:18.404Z,-2.31
2018-02-08T20:52:46.130Z,-2.23
2018-02-08T20:55:13.789Z,-2.17
2018-02-08T20:57:41.415Z,-2.02
2018-02-08T21:00:09.100Z,-2.01
2018-02-08T21:02:36.656Z,-2.13
2018-02-08T21:05:04.431Z,-1.91
2018-02-08T21:07:32.255Z,-1.88
2018-02-08T21:09:59.792Z,-1.78
2018-02-08T21:12:27.355Z,-1.62
2018-02-08T21:14:54.912Z,-1.74
2018-02-08T21:17:22.551Z,-1.68
2018-02-08T21:19:50.426Z,-1.64
2018-02-08T21:22:17.990Z,-1.70
2018-02-08T21:24:45.626Z,-1.72
2018-02-08T21:27:13.213Z,-1.59
2018-02-08T21:29:40.920Z,-1.38
2018-02-08T21:32:08.465Z,-1.27
2018-02-08T21:34:36.192Z,-1.24
2018-02-08T21:37:03.867Z,-1.64
2018-02-08T21:39:31.711Z,-1.65
2018-02-08T21:41:59.270Z,-1.70
2018-02-08T21:44:26.882Z,-1.44
2018-02-08T21:46:54.520Z,-1.42
2018-02-08T21:49:22.130Z,-1.09
2018-02-08T21:51:49.887Z,-1.34
2018-02-08T21:54:17.556Z,-1.38
2018-02-08T21:56:45.189Z,-1.21
2018-02-08T21:59:12.815Z,-1.21
2018-02-08T22:01:40.394Z,-0.83
2018-02-08T22:04:07.945Z,-0.76
2018-02-08T22:06:35.487Z,-0.68
2018-02-08T22:09:03.030Z,-0.81
2018-02-08T22:11:30.666Z,-0.64
2018-02-08T22:13:58.211Z,-0.69
2018-02-08T22:16:25.781Z,-0.67
2018-02-08T22:18:53.328Z,-0.94
2018-02-08T22:21:20.939Z,-0.86
2018-02-08T22:23:48.487Z,-0.79
2018-02-08T22:26:16.026Z,-0.74
2018-02-08T22:28:43.667Z,-0.72
2018-02-08T22:31:11.240Z,-0.84
2018-02-08T22:33:38.836Z,-0.89
2018-02-08T22:36:06.375Z,-0.82
2018-02-08T22:38:34.366Z,-0.98
2018-02-08T22:41:01.975Z,-1.03
2018-02-08T22:43:29.510Z,-1.01
2018-02-08T22:45:57.066Z,-0.85
2018-02-08T22:48:24.780Z,-0.85
2018-02-08T22:50:52.495Z,-0.85
2018-02-08T22:53:20.037Z,-0.67
2018-02-08T22:55:48.518Z,-0.70
2018-02-08T22:58:16.143Z,-0.58
2018-02-08T23:00:43.764Z,-0.55
2018-02-08T23:03:11.315Z,-0.64
2018-02-08T23:05:38.901Z,-0.67
2018-02-08T23:08:06.649Z,-0.63
2018-02-08T23:10:34.202Z,-0.49
2018-02-08T23:13:01.737Z,-0.57
2018-02-08T23:15:29.396Z,-0.66
2018-02-08T23:17:57.012Z,-0.51
2018-02-08T23:20:24.637Z,-0.41
2018-02-08T23:22:52.292Z,-0.49
2018-02-08T23:25:19.825Z,-0.69
2018-02-08T23:27:47.516Z,-0.46
2018-02-08T23:30:15.040Z,-0.30
2018-02-08T23:32:42.654Z,-0.15
2018-02-08T23:35:10.191Z,-0.31
2018-02-08T23:37:37.938Z,-0.51
2018-02-08T23:40:05.476Z,-0.43
2018-02-08T23:42:33.050Z,-0.53
2018-02-08T23:45:00.694Z,-0.66
2018-02-08T23:47:28.262Z,-0.58
2018-02-08T23:49:55.795Z,-0.41
2018-02-08T23:52:23.340Z,-0.37
2018-02-08T23:54:50.887Z,-0.15
2018-02-08T23:57:18.425Z,-0.16
2018-02-08T23:59:46.031Z,-0.25
